Time;durP1;ratioP1;P1;durP2;ratioP2;P2;SDS_P1;SDS_P2;PMS_P1;PMS_P2;Temp;Humidity;BMP_temperature;BMP_pressure;BME280_temperature;BME280_humidity;BME280_pressure;Samples;Min_cycle;Max_cycle;Signal;HPM_P1;HPM_P2
2022/06/09 00:00:45;;;;;;;8.37;7.77;;;;;;;18.92;71.71;100260.78;5040753;28;20170;-72
2022/06/09 00:03:25;;;;;;;9.90;8.57;;;;;;;18.75;71.92;100263.91;5040062;28;20434;-75
2022/06/09 00:05:50;;;;;;;13.47;8.83;;;;;;;18.85;71.46;100260.09;5039722;28;20436;-75
2022/06/09 00:08:17;;;;;;;10.77;9.80;;;;;;;18.88;71.01;100253.84;5039089;28;20409;-74
2022/06/09 00:10:45;;;;;;;10.27;9.00;;;;;;;19.06;70.63;100258.53;5039722;28;20178;-74
2022/06/09 00:13:11;;;;;;;9.13;8.37;;;;;;;19.06;70.27;100253.25;5040618;28;20421;-75
2022/06/09 00:15:36;;;;;;;9.43;7.83;;;;;;;18.88;70.11;100256.47;5040974;28;20448;-74
2022/06/09 00:18:02;;;;;;;9.60;8.73;;;;;;;18.52;71.52;100258.47;5039489;28;20476;-75
2022/06/09 00:20:27;;;;;;;9.20;8.40;;;;;;;19.02;70.00;100252.50;5040577;28;20237;-74
2022/06/09 00:22:52;;;;;;;9.43;8.63;;;;;;;18.93;70.57;100254.56;5041590;28;20257;-75
2022/06/09 00:25:18;;;;;;;9.90;9.10;;;;;;;19.09;70.00;100261.09;5040464;28;20196;-75
2022/06/09 00:27:44;;;;;;;10.57;9.57;;;;;;;18.69;70.88;100265.00;5040460;28;20166;-74
2022/06/09 00:30:11;;;;;;;10.30;9.50;;;;;;;18.84;70.47;100259.19;5040715;28;20257;-74
2022/06/09 00:32:37;;;;;;;10.27;9.23;;;;;;;18.99;69.67;100263.16;5040194;28;20182;-75
2022/06/09 00:35:02;;;;;;;10.67;9.67;;;;;;;18.93;69.63;100260.72;5040302;28;20475;-74
2022/06/09 00:37:28;;;;;;;10.13;9.33;;;;;;;18.67;70.87;100261.50;5040094;28;20200;-75
2022/06/09 00:39:54;;;;;;;9.57;8.77;;;;;;;18.47;71.29;100270.09;5040655;28;20260;-76
2022/06/09 00:42:19;;;;;;;9.80;8.90;;;;;;;18.53;71.26;100264.59;5040287;28;20174;-76
2022/06/09 00:44:45;;;;;;;8.97;7.80;;;;;;;18.71;70.55;100259.66;5040614;28;20693;-76
2022/06/09 00:47:20;;;;;;;9.50;8.60;;;;;;;18.68;70.20;100268.53;5039959;28;20186;-75
2022/06/09 00:50:04;;;;;;;9.23;8.33;;;;;;;18.64;70.80;100264.25;5039337;28;20191;-75
2022/06/09 00:52:35;;;;;;;9.80;8.97;;;;;;;18.59;71.33;100266.19;5039140;28;20691;-74
2022/06/09 00:55:05;;;;;;;9.57;8.50;;;;;;;18.45;72.34;100267.47;5039823;28;20495;-75
2022/06/09 00:57:41;;;;;;;10.67;9.60;;;;;;;18.69;72.18;100265.00;5038970;28;20831;-76
2022/06/09 01:00:12;;;;;;;12.13;10.90;;;;;;;18.41;72.05;100270.25;5055489;28;20424;-75
2022/06/09 01:02:38;;;;;;;12.87;11.70;;;;;;;18.18;73.46;100275.31;5039446;28;20432;-75
2022/06/09 01:05:05;;;;;;;11.03;10.00;;;;;;;18.50;72.31;100269.97;5022192;28;20421;-74
2022/06/09 01:07:38;;;;;;;11.70;10.57;;;;;;;18.37;73.01;100274.75;5039956;28;20376;-75
2022/06/09 01:10:05;;;;;;;11.40;10.40;;;;;;;18.48;72.38;100270.03;5038754;28;20440;-74
2022/06/09 01:12:36;;;;;;;12.57;11.47;;;;;;;18.22;74.30;100283.13;5039213;28;20697;-74
2022/06/09 01:15:13;;;;;;;11.60;10.60;;;;;;;18.35;73.64;100276.59;5039284;28;20567;-76
2022/06/09 01:17:58;;;;;;;11.83;10.90;;;;;;;18.28;74.45;100262.72;5039312;28;20439;-74
2022/06/09 01:20:24;;;;;;;11.03;10.13;;;;;;;18.23;74.35;100269.06;5038104;28;20391;-75
2022/06/09 01:23:33;;;;;;;11.10;10.17;;;;;;;18.21;74.41;100270.84;5039115;28;20415;-75
2022/06/09 01:26:08;;;;;;;9.40;8.50;;;;;;;18.42;72.92;100267.56;5038474;28;20685;-75
2022/06/09 01:28:42;;;;;;;9.73;8.93;;;;;;;18.10;73.96;100269.38;5039286;28;20504;-76
2022/06/09 01:31:15;;;;;;;9.27;8.37;;;;;;;18.50;72.78;100264.69;5039630;28;20438;-76
2022/06/09 01:33:48;;;;;;;9.33;8.43;;;;;;;18.54;73.17;100257.53;5022149;28;20417;-76
2022/06/09 01:36:21;;;;;;;10.10;9.20;;;;;;;18.24;73.76;100262.84;5038518;28;20446;-76
2022/06/09 01:38:56;;;;;;;9.67;8.77;;;;;;;18.09;73.58;100265.03;5038471;28;20490;-76
2022/06/09 01:41:23;;;;;;;9.03;8.20;;;;;;;18.18;73.63;100264.78;5038854;28;20408;-75
2022/06/09 01:43:48;;;;;;;9.47;8.57;;;;;;;18.28;73.95;100261.84;5038623;28;20466;-74
2022/06/09 01:46:19;;;;;;;9.40;8.60;;;;;;;18.27;74.32;100253.06;5038782;28;20421;-74
2022/06/09 01:48:44;;;;;;;8.40;7.60;;;;;;;17.98;74.20;100256.56;5038136;28;20420;-75
2022/06/09 01:51:13;;;;;;;8.43;7.57;;;;;;;18.08;73.68;100255.38;5039187;28;20803;-74
2022/06/09 01:53:48;;;;;;;8.53;7.67;;;;;;;18.23;73.39;100255.84;5037775;28;20533;-75
2022/06/09 01:56:19;;;;;;;9.17;8.27;;;;;;;17.96;74.06;100253.13;5037789;28;20470;-74
2022/06/09 01:58:57;;;;;;;10.30;8.70;;;;;;;18.16;73.98;100245.47;5037889;28;20471;-75
2022/06/09 02:01:26;;;;;;;8.30;7.50;;;;;;;18.30;72.64;100246.84;5038152;28;20413;-76
2022/06/09 02:03:54;;;;;;;8.60;7.80;;;;;;;18.41;72.67;100243.88;5037739;28;20512;-74
2022/06/09 02:06:20;;;;;;;8.87;8.07;;;;;;;18.29;73.04;100247.72;5037637;28;20421;-74
2022/06/09 02:08:46;;;;;;;7.83;7.13;;;;;;;17.71;74.25;100250.25;5038247;28;20824;-75
2022/06/09 02:11:12;;;;;;;6.80;6.20;;;;;;;18.18;72.77;100255.97;5037627;28;20409;-75
2022/06/09 02:13:41;;;;;;;6.77;6.17;;;;;;;18.06;72.64;100248.44;5038924;28;20416;-75
2022/06/09 02:16:12;;;;;;;7.43;6.47;;;;;;;17.88;73.32;100255.06;5038428;28;20208;-76
2022/06/09 02:18:46;;;;;;;6.53;5.90;;;;;;;17.61;73.95;100262.84;5038433;28;20559;-76
2022/06/09 02:21:17;;;;;;;6.67;6.07;;;;;;;17.77;73.33;100253.59;5038222;28;20689;-75
2022/06/09 02:23:43;;;;;;;7.10;6.40;;;;;;;17.96;72.44;100261.88;5038124;28;20417;-75
2022/06/09 02:26:09;;;;;;;8.10;6.17;;;;;;;17.98;72.35;100261.81;5038155;28;20470;-75
2022/06/09 02:28:34;;;;;;;6.33;5.73;;;;;;;17.67;73.06;100268.81;5038492;28;20192;-75
2022/06/09 02:30:59;;;;;;;6.13;5.53;;;;;;;17.70;73.71;100272.25;5037479;28;20556;-76
2022/06/09 02:33:25;;;;;;;6.93;5.80;;;;;;;17.80;72.69;100268.47;5037715;28;20193;-75
2022/06/09 02:35:51;;;;;;;6.07;5.57;;;;;;;17.57;73.68;100269.09;5038700;28;20202;-74
2022/06/09 02:38:19;;;;;;;6.13;5.63;;;;;;;17.57;74.28;100271.72;5037924;28;20174;-75
2022/06/09 02:40:45;;;;;;;7.23;6.60;;;;;;;17.88;72.97;100271.75;5038075;28;20425;-74
2022/06/09 02:43:10;;;;;;;6.90;6.20;;;;;;;17.71;72.85;100277.50;5038108;28;20790;-76
2022/06/09 02:45:36;;;;;;;6.33;5.70;;;;;;;17.67;73.58;100273.19;5037881;28;20416;-74
2022/06/09 02:48:02;;;;;;;7.03;5.67;;;;;;;17.36;74.30;100268.78;5037712;28;20182;-74
2022/06/09 02:50:28;;;;;;;6.10;5.67;;;;;;;17.72;73.21;100266.03;5054504;28;20447;-75
2022/06/09 02:52:54;;;;;;;6.70;6.20;;;;;;;17.53;72.77;100265.66;5037653;28;20413;-75
2022/06/09 02:55:19;;;;;;;6.90;6.07;;;;;;;17.64;72.84;100265.38;5037645;28;20464;-76
2022/06/09 02:57:44;;;;;;;6.90;6.30;;;;;;;17.85;72.30;100267.41;5038261;28;20617;-74
2022/06/09 03:00:14;;;;;;;6.60;5.97;;;;;;;17.85;72.11;100272.69;5037790;28;20181;-75
2022/06/09 03:02:41;;;;;;;7.23;6.53;;;;;;;17.71;72.13;100279.25;5037691;28;20603;-74
2022/06/09 03:05:06;;;;;;;8.67;7.77;;;;;;;17.75;72.13;100276.50;5037935;28;20475;-74
2022/06/09 03:07:32;;;;;;;7.73;7.03;;;;;;;17.99;71.23;100268.84;5037546;28;20504;-74
2022/06/09 03:09:57;;;;;;;9.03;8.23;;;;;;;17.08;73.50;100279.13;5037714;28;20205;-74
2022/06/09 03:12:22;;;;;;;8.20;7.20;;;;;;;16.97;75.14;100282.03;5053817;28;20257;-75
2022/06/09 03:14:48;;;;;;;9.00;8.20;;;;;;;17.32;74.00;100272.38;5036748;28;20222;-75
2022/06/09 03:17:13;;;;;;;9.17;8.27;;;;;;;17.63;73.12;100275.06;5037246;28;20222;-74
2022/06/09 03:19:39;;;;;;;9.23;8.43;;;;;;;17.63;72.59;100276.81;5037870;28;20180;-75
2022/06/09 03:22:04;;;;;;;9.10;8.30;;;;;;;17.63;72.80;100282.09;5037353;28;20189;-75
2022/06/09 03:24:30;;;;;;;9.70;8.80;;;;;;;17.58;72.58;100284.88;5037340;28;20173;-75
2022/06/09 03:26:56;;;;;;;9.63;8.83;;;;;;;17.67;73.22;100284.63;5037773;28;20182;-76
2022/06/09 03:29:22;;;;;;;9.97;9.10;;;;;;;17.71;72.69;100287.16;5037532;28;20202;-75
2022/06/09 03:31:48;;;;;;;10.10;9.20;;;;;;;17.72;72.60;100287.13;5037776;28;20414;-75
2022/06/09 03:34:14;;;;;;;10.70;9.70;;;;;;;17.99;71.66;100282.03;5037815;28;20222;-76
2022/06/09 03:36:40;;;;;;;11.40;10.30;;;;;;;17.56;72.82;100289.31;5037378;28;20170;-74
2022/06/09 03:39:05;;;;;;;12.33;9.90;;;;;;;17.38;73.88;100295.94;5037350;28;20424;-74
2022/06/09 03:41:31;;;;;;;10.07;9.17;;;;;;;17.56;73.17;100299.00;5037914;28;20517;-74
2022/06/09 03:43:56;;;;;;;10.87;9.87;;;;;;;17.36;73.79;100300.38;5040193;28;20257;-74
2022/06/09 03:46:21;;;;;;;10.60;9.60;;;;;;;17.52;74.24;100295.56;5040986;28;20170;-74
2022/06/09 03:48:47;;;;;;;13.03;11.10;;;;;;;17.48;73.33;100307.97;5040877;28;20217;-74
2022/06/09 03:51:12;;;;;;;13.67;12.30;;;;;;;17.40;74.40;100301.16;5040867;28;20256;-74
2022/06/09 03:53:40;;;;;;;13.93;11.63;;;;;;;17.60;73.79;100301.53;5040684;28;20171;-74
2022/06/09 03:56:07;;;;;;;13.70;12.30;;;;;;;17.69;73.25;100300.41;5041214;28;20521;-74
2022/06/09 03:58:32;;;;;;;13.17;11.70;;;;;;;17.35;73.96;100306.56;5039989;28;20818;-74
2022/06/09 04:00:58;;;;;;;14.20;12.37;;;;;;;17.60;73.80;100303.28;5040721;28;20413;-76
2022/06/09 04:03:23;;;;;;;14.33;12.77;;;;;;;17.71;73.31;100310.91;5040245;28;20458;-77
2022/06/09 04:05:48;;;;;;;15.23;13.73;;;;;;;17.24;74.90;100308.56;5040782;28;20174;-76
2022/06/09 04:08:14;;;;;;;15.97;14.37;;;;;;;17.79;73.70;100304.53;5039941;28;20185;-76
2022/06/09 04:10:39;;;;;;;15.80;14.20;;;;;;;17.60;74.27;100308.53;5041014;28;20170;-76
2022/06/09 04:13:06;;;;;;;16.50;14.80;;;;;;;17.65;74.57;100302.25;5040285;28;20178;-76
2022/06/09 04:15:31;;;;;;;17.37;15.57;;;;;;;17.40;74.58;100312.56;5039638;28;20213;-76
2022/06/09 04:17:57;;;;;;;17.87;16.17;;;;;;;18.02;73.13;100310.94;5040437;28;20847;-75
2022/06/09 04:20:24;;;;;;;16.87;15.03;;;;;;;17.95;74.05;100312.03;5040418;28;20178;-76
2022/06/09 04:22:50;;;;;;;15.97;14.47;;;;;;;17.62;73.98;100312.03;5040611;28;20216;-76
2022/06/09 04:25:17;;;;;;;18.43;16.47;;;;;;;18.22;73.17;100307.75;5040571;28;20412;-75
2022/06/09 04:27:44;;;;;;;16.87;15.10;;;;;;;17.85;74.09;100317.53;5039517;28;20706;-75
2022/06/09 04:30:10;;;;;;;18.10;16.30;;;;;;;18.22;72.82;100314.81;5040784;28;20641;-76
2022/06/09 04:32:36;;;;;;;17.20;15.37;;;;;;;18.21;72.95;100313.06;5020404;28;20448;-75
2022/06/09 04:35:01;;;;;;;17.97;16.17;;;;;;;17.91;73.27;100323.53;5039988;28;20460;-75
2022/06/09 04:37:59;;;;;;;16.40;14.73;;;;;;;17.82;73.83;100320.25;5040644;28;20166;-73
2022/06/09 04:40:12;;;;;;;17.33;15.53;;;;;;;18.01;73.01;100322.44;5039224;28;20540;-70
2022/06/09 04:42:37;;;;;;;17.77;15.97;;;;;;;17.93;73.41;100324.41;5039449;28;20448;-69
2022/06/09 04:45:03;;;;;;;16.60;14.63;;;;;;;17.92;73.45;100327.94;5039744;28;20293;-70
2022/06/09 04:47:29;;;;;;;17.87;16.23;;;;;;;18.11;74.15;100331.78;5038230;28;20235;-70
2022/06/09 04:49:54;;;;;;;18.53;16.73;;;;;;;17.82;75.03;100327.31;5038359;28;20842;-70
2022/06/09 04:52:20;;;;;;;17.90;16.20;;;;;;;18.13;73.65;100330.00;5026258;28;20179;-70
2022/06/09 04:54:45;;;;;;;18.60;16.70;;;;;;;17.85;73.52;100321.94;5020826;28;20211;-70
2022/06/09 04:57:11;;;;;;;16.83;14.97;;;;;;;18.05;73.76;100329.34;5033802;28;20175;-70
2022/06/09 04:59:36;;;;;;;18.47;16.50;;;;;;;17.73;74.66;100336.31;5039511;28;20447;-70
2022/06/09 05:02:01;;;;;;;17.17;15.57;;;;;;;18.19;73.20;100334.22;5039694;28;20174;-70
2022/06/09 05:04:27;;;;;;;16.83;15.13;;;;;;;18.37;72.59;100335.44;5039747;28;20170;-69
2022/06/09 05:06:52;;;;;;;17.57;15.67;;;;;;;18.04;73.64;100343.44;5039536;28;20190;-70
2022/06/09 05:09:18;;;;;;;20.73;15.67;;;;;;;18.01;73.72;100351.44;5039457;28;20170;-71
2022/06/09 05:11:44;;;;;;;18.07;15.33;;;;;;;17.89;74.07;100349.06;5039183;28;20178;-70
2022/06/09 05:14:09;;;;;;;18.40;16.57;;;;;;;17.99;73.60;100347.97;5038897;28;20190;-69
2022/06/09 05:16:35;;;;;;;19.73;15.77;;;;;;;18.00;73.89;100360.25;5038970;28;20206;-70
2022/06/09 05:19:00;;;;;;;18.20;15.07;;;;;;;18.26;73.77;100361.28;5039601;28;20188;-70
2022/06/09 05:21:26;;;;;;;15.87;14.27;;;;;;;18.18;73.43;100359.75;5039214;28;20174;-70
2022/06/09 05:23:51;;;;;;;17.57;15.80;;;;;;;18.01;74.39;100362.00;5039030;28;20228;-69
2022/06/09 05:26:16;;;;;;;19.33;16.90;;;;;;;18.09;74.51;100367.91;5039379;28;20166;-70
2022/06/09 05:28:42;;;;;;;19.10;17.03;;;;;;;18.32;73.83;100374.31;5038927;28;20204;-70
2022/06/09 05:31:08;;;;;;;18.33;16.60;;;;;;;18.20;73.90;100374.66;5039033;28;20171;-71
2022/06/09 05:33:33;;;;;;;21.50;19.20;;;;;;;18.64;72.94;100383.06;5039440;28;20181;-72
2022/06/09 05:35:59;;;;;;;18.60;15.50;;;;;;;18.42;72.46;100380.22;5038724;28;20271;-71
2022/06/09 05:46:38;;;;;;;14.57;12.90;;;;;;;19.78;66.76;100374.19;5038795;28;20470;-71
2022/06/09 05:49:04;;;;;;;13.00;11.43;;;;;;;18.87;68.39;100382.38;5038506;28;20433;-71
2022/06/09 05:51:30;;;;;;;12.33;11.13;;;;;;;19.37;66.81;100384.38;5038252;28;20181;-71
2022/06/09 05:53:55;;;;;;;11.93;10.63;;;;;;;19.52;66.46;100386.53;5038197;28;20181;-71
2022/06/09 05:56:21;;;;;;;11.87;10.23;;;;;;;18.81;68.00;100396.63;5039397;28;20445;-71
2022/06/09 05:58:46;;;;;;;10.93;9.80;;;;;;;19.41;66.63;100401.84;5038385;28;20455;-71
2022/06/09 06:01:12;;;;;;;11.73;9.73;;;;;;;19.28;66.31;100409.34;5038318;28;20170;-71
2022/06/09 06:03:39;;;;;;;10.27;9.27;;;;;;;18.92;67.42;100411.34;5038630;28;20528;-72
2022/06/09 06:08:49;;;;;;;12.73;9.70;;;;;;;18.64;68.54;100423.53;5038675;28;20412;-72
2022/06/09 06:11:14;;;;;;;12.00;10.70;;;;;;;18.50;69.39;100431.84;5038402;28;20685;-72
2022/06/09 06:13:41;;;;;;;14.37;9.50;;;;;;;18.67;69.50;100431.38;5037972;28;20448;-71
2022/06/09 06:16:06;;;;;;;11.73;9.80;;;;;;;18.62;69.37;100445.63;5038607;28;20312;-72
2022/06/09 06:18:31;;;;;;;11.80;9.90;;;;;;;18.74;69.49;100447.91;5037857;28;20536;-71
2022/06/09 06:20:57;;;;;;;11.57;9.87;;;;;;;18.27;70.21;100450.97;5038148;28;20178;-71
2022/06/09 06:23:23;;;;;;;9.53;8.40;;;;;;;18.27;70.54;100452.75;5038230;28;20410;-71
2022/06/09 06:25:48;;;;;;;8.33;7.57;;;;;;;17.88;70.56;100452.84;5037269;28;20174;-71
2022/06/09 06:28:14;;;;;;;7.70;7.00;;;;;;;17.81;70.43;100460.03;5038048;28;20830;-71
2022/06/09 06:30:39;;;;;;;7.90;6.97;;;;;;;18.24;69.79;100466.00;5038487;28;20166;-70
2022/06/09 06:33:05;;;;;;;6.50;5.90;;;;;;;18.12;69.20;100469.84;5037841;28;20240;-71
2022/06/09 06:35:30;;;;;;;6.53;5.93;;;;;;;18.27;68.82;100471.22;5037765;28;20477;-71
2022/06/09 06:37:56;;;;;;;6.03;5.53;;;;;;;18.29;68.35;100479.94;5038790;28;20220;-71
2022/06/09 06:40:21;;;;;;;6.20;5.70;;;;;;;18.29;68.37;100482.59;5037956;28;20178;-70
2022/06/09 06:42:47;;;;;;;6.00;5.50;;;;;;;18.13;68.78;100480.38;5037651;28;20174;-71
2022/06/09 06:45:14;;;;;;;5.57;5.13;;;;;;;18.36;68.52;100489.47;5038094;28;20194;-71
2022/06/09 06:47:39;;;;;;;6.50;5.83;;;;;;;18.20;68.71;100494.25;5037838;28;20174;-70
2022/06/09 06:50:07;;;;;;;6.80;6.20;;;;;;;18.01;68.87;100499.16;5037692;28;20495;-71
2022/06/09 06:52:32;;;;;;;6.70;5.40;;;;;;;18.33;68.02;100495.69;5037775;28;20285;-71
2022/06/09 06:54:58;;;;;;;6.53;5.97;;;;;;;17.81;69.50;100503.09;5037563;28;20471;-71
2022/06/09 06:57:25;;;;;;;7.90;7.10;;;;;;;17.88;69.59;100503.81;5037556;28;20209;-72
2022/06/09 06:59:50;;;;;;;7.70;6.93;;;;;;;18.06;68.73;100505.16;5038084;28;20581;-71
2022/06/09 07:02:16;;;;;;;7.57;6.87;;;;;;;18.46;67.90;100509.41;5037382;28;20433;-71
2022/06/09 07:04:41;;;;;;;7.97;7.03;;;;;;;18.72;67.19;100518.38;5037733;28;20178;-72
2022/06/09 07:07:07;;;;;;;8.10;7.40;;;;;;;18.78;66.90;100518.22;5038009;28;20189;-70
2022/06/09 07:09:32;;;;;;;8.00;7.20;;;;;;;19.06;66.26;100516.59;5037592;28;20189;-70
2022/06/09 07:11:57;;;;;;;7.33;6.70;;;;;;;19.45;64.61;100522.44;5037456;28;20264;-71
2022/06/09 07:14:23;;;;;;;7.40;6.70;;;;;;;19.68;64.07;100527.00;5037506;28;20248;-70
2022/06/09 07:16:49;;;;;;;10.80;8.13;;;;;;;19.40;64.12;100532.28;5037102;28;20230;-71
2022/06/09 07:19:15;;;;;;;8.27;7.57;;;;;;;18.96;65.87;100534.50;5041009;28;20209;-71
2022/06/09 07:21:40;;;;;;;8.60;7.90;;;;;;;19.23;65.56;100532.81;5041933;28;20618;-70
2022/06/09 07:24:06;;;;;;;8.50;7.80;;;;;;;19.81;64.00;100530.19;5041459;28;20428;-73
2022/06/09 07:26:31;;;;;;;11.10;8.43;;;;;;;19.92;62.69;100534.28;5041350;28;20257;-70
2022/06/09 07:28:57;;;;;;;9.00;7.47;;;;;;;20.65;60.75;100540.63;5041822;28;20253;-70
2022/06/09 07:31:22;;;;;;;9.47;8.10;;;;;;;20.34;61.38;100539.03;5041087;28;20500;-69
2022/06/09 07:33:48;;;;;;;9.13;7.80;;;;;;;19.99;62.14;100547.22;5040891;28;20178;-69
2022/06/09 07:36:18;;;;;;;9.40;8.13;;;;;;;20.08;61.73;100542.53;5041518;28;20201;-70
2022/06/09 07:38:43;;;;;;;9.80;8.80;;;;;;;19.18;64.70;100553.22;5041015;28;20208;-69
2022/06/09 07:41:09;;;;;;;9.20;8.40;;;;;;;18.91;65.30;100558.38;5041012;28;20416;-69
2022/06/09 07:43:35;;;;;;;10.40;9.50;;;;;;;18.93;66.05;100558.34;5041162;28;20194;-69
2022/06/09 07:46:00;;;;;;;10.57;9.50;;;;;;;18.77;66.01;100560.53;5040832;28;20170;-69
2022/06/09 07:48:26;;;;;;;10.90;9.90;;;;;;;19.13;65.46;100565.69;5040682;28;20232;-68
2022/06/09 07:50:52;;;;;;;11.87;10.67;;;;;;;18.84;66.45;100567.34;5041212;28;20213;-68
2022/06/09 07:53:18;;;;;;;10.40;9.17;;;;;;;18.46;67.46;100572.75;5040884;28;20539;-68
2022/06/09 07:55:44;;;;;;;12.03;10.83;;;;;;;18.72;67.44;100573.84;5041031;28;20503;-68
2022/06/09 07:58:10;;;;;;;11.00;9.90;;;;;;;18.92;66.77;100577.75;5041075;28;20808;-71
2022/06/09 08:00:35;;;;;;;11.03;9.97;;;;;;;18.77;67.33;100574.59;5040577;28;20231;-70
2022/06/09 08:03:04;;;;;;;10.80;9.63;;;;;;;18.94;66.46;100582.09;5040398;28;20189;-69
2022/06/09 08:05:30;;;;;;;11.70;10.60;;;;;;;19.22;65.88;100583.94;5040920;28;20158;-70
2022/06/09 08:07:56;;;;;;;11.60;10.43;;;;;;;19.16;66.17;100595.56;5040402;28;20467;-70
2022/06/09 08:10:24;;;;;;;11.87;10.33;;;;;;;19.32;65.65;100589.81;5040628;28;20454;-69
2022/06/09 08:12:52;;;;;;;12.60;10.17;;;;;;;19.12;65.72;100598.31;5039773;28;20186;-70
2022/06/09 08:15:19;;;;;;;10.77;9.67;;;;;;;19.97;64.38;100604.63;5040248;28;20468;-68
2022/06/09 08:17:44;;;;;;;11.00;9.80;;;;;;;19.28;64.69;100606.66;5040344;28;20615;-69
2022/06/09 08:20:11;;;;;;;18.17;10.10;;;;;;;19.03;65.34;100607.38;5040718;28;20550;-69
2022/06/09 08:22:43;;;;;;;13.50;10.20;;;;;;;18.73;67.13;100612.53;5040075;28;20493;-69
2022/06/09 08:25:10;;;;;;;12.00;10.80;;;;;;;18.94;66.89;100620.81;5040175;28;20500;-69
2022/06/09 08:27:36;;;;;;;11.93;10.73;;;;;;;18.89;66.72;100617.44;5040498;28;20447;-69
2022/06/09 08:30:01;;;;;;;12.60;10.97;;;;;;;19.03;66.61;100617.94;5039003;28;20425;-68
2022/06/09 08:32:27;;;;;;;12.97;10.83;;;;;;;18.84;67.14;100625.47;5040438;28;20202;-68
2022/06/09 08:34:52;;;;;;;12.83;11.00;;;;;;;19.23;67.24;100635.88;5039836;28;20557;-68
2022/06/09 08:37:18;;;;;;;11.93;10.67;;;;;;;18.66;68.91;100640.03;5040057;28;20204;-69
2022/06/09 08:39:43;;;;;;;14.53;11.67;;;;;;;18.98;68.36;100643.59;5040375;28;20270;-69
2022/06/09 08:42:24;;;;;;;12.27;11.00;;;;;;;18.92;68.20;100641.16;5039917;28;20536;-68
2022/06/09 08:45:00;;;;;;;13.50;11.17;;;;;;;19.39;66.96;100648.66;5039859;28;20171;-69
2022/06/09 08:47:37;;;;;;;12.47;10.73;;;;;;;19.67;65.85;100654.91;5039270;28;20420;-69
2022/06/09 08:50:05;;;;;;;14.33;11.40;;;;;;;19.30;66.94;100655.94;5039063;28;20474;-69
2022/06/09 08:52:52;;;;;;;13.57;10.80;;;;;;;19.26;67.35;100650.78;5039618;28;20417;-69
2022/06/09 08:55:17;;;;;;;17.30;11.50;;;;;;;19.15;67.16;100659.88;5039085;28;20547;-69
2022/06/09 08:57:44;;;;;;;12.80;10.47;;;;;;;19.39;66.44;100661.88;5039660;28;20437;-69
2022/06/09 09:00:13;;;;;;;11.50;10.30;;;;;;;19.27;67.96;100658.69;5039661;28;20177;-70
2022/06/09 09:02:42;;;;;;;13.40;11.83;;;;;;;19.47;67.04;100670.44;5039151;28;20467;-72
2022/06/09 09:05:13;;;;;;;13.20;10.80;;;;;;;19.41;67.96;100682.06;5038664;28;20423;-69
2022/06/09 09:07:44;;;;;;;14.20;9.50;;;;;;;19.06;69.28;100680.41;5039214;28;20420;-70
2022/06/09 09:10:20;;;;;;;13.40;10.53;;;;;;;19.31;67.90;100680.63;5039289;28;20513;-69
2022/06/09 09:12:57;;;;;;;11.80;9.80;;;;;;;19.41;67.60;100684.72;5039235;28;20417;-70
2022/06/09 09:15:53;;;;;;;11.10;9.87;;;;;;;19.01;68.04;100685.78;5038622;28;20467;-72
2022/06/09 09:18:28;;;;;;;10.73;9.73;;;;;;;19.09;67.84;100691.78;5039173;28;20492;-73
2022/06/09 09:21:23;;;;;;;12.23;8.60;;;;;;;19.45;66.59;100689.00;5039126;28;20409;-73
2022/06/09 09:24:04;;;;;;;10.13;8.70;;;;;;;19.77;64.96;100697.81;5039002;28;20409;-72
2022/06/09 09:26:38;;;;;;;9.43;8.53;;;;;;;20.18;64.23;100697.50;5038316;28;20424;-69
2022/06/09 09:29:16;;;;;;;9.70;8.70;;;;;;;20.37;63.22;100697.78;5038982;28;20477;-69
2022/06/09 09:31:55;;;;;;;10.00;9.00;;;;;;;20.34;63.14;100687.31;5039066;28;20420;-69
2022/06/09 09:34:24;;;;;;;12.47;8.70;;;;;;;21.53;59.82;100684.16;5037948;28;20806;-69
2022/06/09 09:36:54;;;;;;;8.90;7.90;;;;;;;21.81;58.46;100685.78;5038782;28;20410;-68
2022/06/09 09:39:30;;;;;;;9.30;8.40;;;;;;;21.82;57.45;100684.84;5038851;28;20837;-69
2022/06/09 09:42:17;;;;;;;10.07;7.93;;;;;;;21.56;57.67;100699.09;5037591;28;20523;-69
2022/06/09 09:45:01;;;;;;;9.03;8.13;;;;;;;20.13;61.46;100702.94;5038611;28;20417;-68
2022/06/09 09:47:28;;;;;;;8.83;8.07;;;;;;;20.20;62.22;100703.59;5038613;28;20397;-69
2022/06/09 09:50:04;;;;;;;9.77;8.80;;;;;;;21.11;60.24;100716.56;5038661;28;20454;-69
2022/06/09 09:52:43;;;;;;;9.07;7.90;;;;;;;20.79;60.40;100717.66;5037983;28;20858;-68
2022/06/09 09:55:54;;;;;;;8.33;7.53;;;;;;;20.74;60.17;100723.09;5038555;28;20460;-68
2022/06/09 09:58:24;;;;;;;9.40;8.50;;;;;;;20.43;61.25;100732.03;5037503;28;20437;-71
2022/06/09 10:00:58;;;;;;;10.40;8.27;;;;;;;19.77;62.17;100737.47;5038497;28;20409;-71
2022/06/09 10:09:20;;;;;;;7.97;7.23;;;;;;;22.70;53.21;100729.22;5037814;28;20420;-70
2022/06/09 10:11:54;;;;;;;7.63;6.80;;;;;;;21.94;55.05;100741.03;5038320;28;20401;-70
2022/06/09 10:14:39;;;;;;;8.73;7.53;;;;;;;22.00;56.00;100741.69;5038197;28;20679;-69
2022/06/09 10:17:27;;;;;;;9.17;8.23;;;;;;;21.13;57.78;100743.88;5037323;28;20452;-70
2022/06/09 10:20:15;;;;;;;9.17;8.10;;;;;;;21.35;58.29;100748.44;5038174;28;20685;-68
2022/06/09 10:22:43;;;;;;;9.60;8.60;;;;;;;20.95;58.56;100752.47;5037240;28;20436;-68
2022/06/09 10:25:45;;;;;;;10.00;9.10;;;;;;;21.18;58.55;100757.84;5037990;28;20435;-68
2022/06/09 10:28:18;;;;;;;9.73;8.87;;;;;;;21.10;58.74;100754.59;5037786;28;20417;-67
2022/06/09 10:30:51;;;;;;;9.40;8.50;;;;;;;21.23;58.26;100763.00;5037866;28;20498;-68
2022/06/09 10:33:26;;;;;;;8.97;8.17;;;;;;;22.14;55.94;100754.41;5037980;28;20807;-70
2022/06/09 10:36:06;;;;;;;10.00;9.10;;;;;;;22.00;55.47;100759.38;5037371;28;20886;-68
2022/06/09 10:38:35;;;;;;;9.60;8.60;;;;;;;21.25;57.55;100768.25;5037030;28;20467;-69
2022/06/09 10:41:04;;;;;;;9.77;8.77;;;;;;;21.23;58.38;100770.97;5037823;28;20441;-68
2022/06/09 10:43:34;;;;;;;8.47;7.67;;;;;;;21.51;57.65;100770.84;5037763;28;20421;-70
2022/06/09 10:46:23;;;;;;;9.27;8.13;;;;;;;22.87;53.31;100760.41;5053968;28;20420;-70
2022/06/09 10:55:19;;;;;;;9.70;7.60;;;;;;;22.70;53.98;100777.06;5037184;28;20718;-70
2022/06/09 10:57:57;;;;;;;9.13;7.70;;;;;;;21.95;54.30;100791.41;5037546;28;20694;-70
2022/06/09 11:00:25;;;;;;;8.87;8.00;;;;;;;21.36;56.98;100797.91;5037764;28;20526;-70
2022/06/09 11:02:56;;;;;;;8.33;7.63;;;;;;;21.46;56.58;100798.44;5037463;28;20429;-69
2022/06/09 11:05:40;;;;;;;8.70;7.80;;;;;;;21.56;56.29;100797.25;5037016;28;20945;-70
2022/06/09 11:08:19;;;;;;;7.90;7.30;;;;;;;21.89;55.37;100804.91;5036769;28;20424;-71
2022/06/09 11:10:54;;;;;;;8.27;7.20;;;;;;;22.02;55.18;100803.53;5017202;28;20430;-72
2022/06/09 11:13:54;;;;;;;7.87;7.17;;;;;;;23.28;51.96;100796.00;5017017;28;20414;-72
2022/06/09 11:16:42;;;;;;;6.97;6.30;;;;;;;24.21;48.63;100790.97;5017751;28;20465;-71
2022/06/09 11:19:22;;;;;;;7.33;6.00;;;;;;;24.23;47.82;100790.03;5017826;28;20469;-73
2022/06/09 11:21:57;;;;;;;6.40;5.80;;;;;;;23.64;49.51;100803.31;5017843;28;20410;-69
2022/06/09 11:24:32;;;;;;;6.90;6.20;;;;;;;23.21;50.81;100806.88;5017649;28;20460;-70
2022/06/09 11:27:16;;;;;;;6.30;5.80;;;;;;;22.46;52.72;100812.53;5017420;28;20415;-70
2022/06/09 11:29:57;;;;;;;6.53;6.03;;;;;;;22.45;52.92;100811.69;5017635;28;20500;-69
2022/06/09 11:32:48;;;;;;;6.37;5.77;;;;;;;22.14;53.18;100814.63;5021051;28;20413;-69
2022/06/09 11:35:26;;;;;;;5.80;5.30;;;;;;;21.89;52.86;100831.44;5032854;28;20468;-69
2022/06/09 11:38:06;;;;;;;6.30;5.80;;;;;;;22.01;53.26;100835.44;5037259;28;20424;-69
2022/06/09 11:40:53;;;;;;;5.80;5.30;;;;;;;22.63;51.57;100825.19;5032376;28;20447;-69
2022/06/09 11:43:24;;;;;;;5.83;5.07;;;;;;;23.76;48.85;100816.06;5017492;28;20428;-70
2022/06/09 11:45:56;;;;;;;5.83;5.30;;;;;;;23.68;48.66;100827.06;5019144;28;21058;-70
2022/06/09 11:48:28;;;;;;;5.70;5.30;;;;;;;23.77;48.37;100820.44;5025194;28;20420;-70
2022/06/09 11:50:53;;;;;;;5.40;4.90;;;;;;;23.48;48.76;100830.56;5037110;28;20405;-70
2022/06/09 11:53:26;;;;;;;5.47;5.07;;;;;;;23.23;49.34;100829.88;5036038;28;20524;-70